Time;durP1;ratioP1;P1;durP2;ratioP2;P2;SDS_P1;SDS_P2;PMS_P1;PMS_P2;Temp;Humidity;BMP_temperature;BMP_pressure;BME280_temperature;BME280_humidity;BME280_pressure;Samples;Min_cycle;Max_cycle;Signal;HPM_P1;HPM_P2
2022/11/14 00:00:12;;;;;;;26.20;21.23;;;;;;;6.46;100.00;101266.59;5069952;28;20520;-69
2022/11/14 00:02:39;;;;;;;25.77;20.40;;;;;;;6.53;100.00;101312.19;5069960;28;20099;-68
2022/11/14 00:05:06;;;;;;;24.63;20.15;;;;;;;6.10;100.00;101240.16;5070274;28;20048;-69
2022/11/14 00:07:33;;;;;;;26.48;20.95;;;;;;;6.76;100.00;101335.13;5052124;28;20039;-69
2022/11/14 00:09:58;;;;;;;25.73;20.70;;;;;;;6.81;100.00;101333.50;5052354;28;20032;-69
2022/11/14 00:12:24;;;;;;;29.45;21.58;;;;;;;6.53;100.00;101316.38;5085625;28;20093;-69
2022/11/14 00:14:50;;;;;;;25.95;21.63;;;;;;;5.76;100.00;101205.28;5052458;28;20027;-69
2022/11/14 00:17:16;;;;;;;24.60;20.23;;;;;;;6.92;100.00;101317.59;5070454;28;20114;-69
2022/11/14 00:19:42;;;;;;;24.52;19.52;;;;;;;6.99;100.00;101329.44;5070132;28;20063;-69
2022/11/14 00:22:07;;;;;;;23.80;20.05;;;;;;;6.45;100.00;101249.78;5069925;28;20487;-69
2022/11/14 00:24:33;;;;;;;27.23;20.75;;;;;;;6.53;100.00;101339.97;5070114;28;20109;-69
2022/11/14 00:26:58;;;;;;;25.75;22.10;;;;;;;6.53;100.00;101324.81;5051989;28;20037;-69
2022/11/14 00:29:24;;;;;;;27.35;22.10;;;;;;;6.32;100.00;101318.69;5069769;28;20025;-69
2022/11/14 00:31:49;;;;;;;28.60;23.55;;;;;;;6.39;100.00;101313.72;5051836;28;20039;-69
2022/11/14 00:34:15;;;;;;;29.75;23.75;;;;;;;6.06;100.00;101273.78;5069861;28;20024;-69
2022/11/14 00:36:40;;;;;;;30.92;22.77;;;;;;;5.82;100.00;101232.28;5051853;28;20028;-69
2022/11/14 00:39:05;;;;;;;30.65;22.40;;;;;;;5.68;100.00;101180.81;5051813;28;20419;-69
2022/11/14 00:41:31;;;;;;;26.83;22.63;;;;;;;6.20;100.00;101273.94;5069828;28;20039;-69
2022/11/14 00:43:56;;;;;;;28.73;22.92;;;;;;;6.15;100.00;101235.19;5069574;28;20024;-70
2022/11/14 00:46:22;;;;;;;32.33;23.55;;;;;;;6.71;100.00;101309.81;5069647;28;20025;-69
2022/11/14 00:48:47;;;;;;;29.30;24.25;;;;;;;6.28;100.00;101306.84;5069799;28;20081;-68
2022/11/14 00:51:12;;;;;;;34.08;24.85;;;;;;;6.48;100.00;101291.06;5071354;28;20024;-69
2022/11/14 00:53:38;;;;;;;29.65;23.17;;;;;;;6.42;100.00;101225.34;5073386;28;20574;-69
2022/11/14 00:56:05;;;;;;;30.80;22.95;;;;;;;6.67;100.00;101304.72;5055712;28;20039;-69
2022/11/14 00:58:31;;;;;;;26.77;21.58;;;;;;;6.69;100.00;101296.34;5055650;28;20036;-70
2022/11/14 01:00:57;;;;;;;29.23;22.45;;;;;;;6.71;100.00;101299.72;5073549;28;20025;-69
2022/11/14 01:03:22;;;;;;;27.33;21.65;;;;;;;6.20;100.00;101248.69;5073521;28;20111;-69
2022/11/14 01:05:49;;;;;;;28.73;20.70;;;;;;;5.85;100.00;101210.47;5073131;28;20433;-69
2022/11/14 01:08:17;;;;;;;28.83;21.88;;;;;;;6.09;100.00;101241.00;5073586;28;20032;-70
2022/11/14 01:10:48;;;;;;;27.77;21.25;;;;;;;6.02;100.00;101239.25;5073612;28;20033;-69
2022/11/14 01:13:14;;;;;;;27.27;20.70;;;;;;;6.02;100.00;101256.09;5072908;28;20115;-70
2022/11/14 01:15:43;;;;;;;25.65;20.15;;;;;;;5.90;100.00;101250.91;5055597;28;20831;-69
2022/11/14 01:18:15;;;;;;;26.42;19.17;;;;;;;6.06;100.00;101303.25;5055191;28;20050;-69
2022/11/14 01:20:44;;;;;;;25.90;18.27;;;;;;;5.46;100.00;101239.38;5073605;28;20046;-69
2022/11/14 01:23:11;;;;;;;26.20;21.08;;;;;;;6.27;100.00;101300.09;5073260;28;20024;-69
2022/11/14 01:25:38;;;;;;;29.33;22.08;;;;;;;6.00;100.00;101295.59;5073147;28;20090;-69
2022/11/14 01:28:09;;;;;;;26.55;20.25;;;;;;;6.05;100.00;101293.97;5054899;28;20037;-69
2022/11/14 01:30:35;;;;;;;21.13;17.50;;;;;;;5.91;100.00;101275.28;5072974;28;20032;-69
2022/11/14 01:33:01;;;;;;;20.80;16.85;;;;;;;5.46;100.00;101229.28;5072792;28;20035;-69
2022/11/14 01:35:26;;;;;;;19.40;16.13;;;;;;;5.42;100.00;101250.25;5072882;28;20034;-69
2022/11/14 01:37:52;;;;;;;25.45;16.63;;;;;;;5.52;100.00;101289.91;5054735;28;20402;-68
2022/11/14 01:40:17;;;;;;;19.63;15.55;;;;;;;5.38;100.00;101239.28;5054168;28;20512;-69
2022/11/14 01:43:18;;;;;;;20.98;14.95;;;;;;;5.89;100.00;101284.50;5072388;28;20515;-69
2022/11/14 01:45:57;;;;;;;18.98;14.63;;;;;;;5.56;100.00;101300.06;5072862;28;20043;-72
2022/11/14 01:48:42;;;;;;;18.02;14.52;;;;;;;5.30;100.00;101293.78;5072972;28;20035;-69
2022/11/14 01:51:22;;;;;;;19.17;15.07;;;;;;;5.36;100.00;101282.94;5072658;28;20021;-69
2022/11/14 01:53:52;;;;;;;23.27;15.32;;;;;;;4.87;100.00;101221.72;5072564;28;20151;-68
2022/11/14 01:56:24;;;;;;;18.60;13.80;;;;;;;5.37;100.00;101254.41;5072334;28;20067;-69
2022/11/14 01:59:01;;;;;;;18.45;13.75;;;;;;;5.17;100.00;101296.94;5072660;28;20025;-69
2022/11/14 02:01:31;;;;;;;21.58;13.95;;;;;;;4.84;100.00;101246.03;5072567;28;20136;-68
2022/11/14 02:03:58;;;;;;;16.80;13.73;;;;;;;4.98;100.00;101279.84;5071479;28;20039;-69
2022/11/14 02:06:28;;;;;;;17.50;13.52;;;;;;;4.44;100.00;101131.25;5054195;28;20549;-68
2022/11/14 02:08:55;;;;;;;17.88;13.23;;;;;;;5.05;100.00;101284.19;5054355;28;20029;-69
2022/11/14 02:11:20;;;;;;;14.13;12.52;;;;;;;4.47;100.00;101229.50;5072168;28;20077;-69
2022/11/14 02:13:46;;;;;;;12.75;11.45;;;;;;;4.83;100.00;101267.03;5087365;28;20032;-71
2022/11/14 02:16:11;;;;;;;12.85;11.40;;;;;;;4.50;100.00;101271.50;5072054;28;20387;-69
2022/11/14 02:18:36;;;;;;;12.93;11.57;;;;;;;3.79;100.00;101199.72;5054316;28;20032;-69
2022/11/14 02:21:02;;;;;;;13.20;11.90;;;;;;;4.45;100.00;101263.00;5050384;28;20358;-69
2022/11/14 02:23:30;;;;;;;11.95;10.75;;;;;;;4.33;100.00;101226.75;5051902;28;20122;-68
2022/11/14 02:25:56;;;;;;;12.88;11.50;;;;;;;4.63;100.00;101260.81;5051974;28;20056;-69
2022/11/14 02:28:22;;;;;;;13.30;11.63;;;;;;;4.73;100.00;101266.03;5050360;28;20064;-68
2022/11/14 02:30:47;;;;;;;13.25;11.75;;;;;;;4.60;100.00;101270.81;5051919;28;20411;-69
2022/11/14 02:33:13;;;;;;;13.25;11.90;;;;;;;4.25;100.00;101204.78;5051906;28;20029;-69
2022/11/14 02:35:39;;;;;;;12.73;11.48;;;;;;;4.08;100.00;101151.66;5033939;28;20392;-68
2022/11/14 02:38:05;;;;;;;17.33;13.35;;;;;;;4.69;100.00;101283.59;5051901;28;20150;-69
2022/11/14 02:40:30;;;;;;;15.07;12.43;;;;;;;4.48;100.00;101273.97;5051828;28;20025;-69
2022/11/14 02:42:56;;;;;;;17.50;14.30;;;;;;;4.29;100.00;101289.59;5051291;28;20415;-70
2022/11/14 02:45:21;;;;;;;25.15;14.95;;;;;;;3.66;100.00;101213.75;5051376;28;20040;-68
2022/11/14 02:47:47;;;;;;;17.98;14.18;;;;;;;4.43;100.00;101282.28;5051807;28;20037;-69
2022/11/14 02:50:13;;;;;;;17.90;13.70;;;;;;;4.46;100.00;101274.78;5051178;28;20036;-69
2022/11/14 02:52:38;;;;;;;19.92;13.88;;;;;;;3.46;100.00;101152.19;5033565;28;20039;-69
2022/11/14 02:55:04;;;;;;;17.20;13.93;;;;;;;4.43;100.00;101269.69;5051925;28;20048;-69
2022/11/14 02:57:30;;;;;;;17.70;14.23;;;;;;;3.90;100.00;101194.06;5051167;28;20029;-69
2022/11/14 02:59:55;;;;;;;124.03;17.67;;;;;;;3.76;100.00;101195.50;5051061;28;20063;-69
2022/11/14 03:02:21;;;;;;;81.07;16.33;;;;;;;4.17;100.00;101266.69;5033695;28;20035;-69
2022/11/14 03:04:46;;;;;;;118.93;19.55;;;;;;;3.98;100.00;101221.91;5051345;28;20040;-69
2022/11/14 03:07:11;;;;;;;110.95;19.17;;;;;;;4.28;100.00;101276.13;5050957;28;20376;-68
2022/11/14 03:09:37;;;;;;;59.53;18.17;;;;;;;3.58;100.00;101195.16;5051026;28;20040;-69
2022/11/14 03:12:02;;;;;;;72.78;18.38;;;;;;;4.23;100.00;101281.91;5050944;28;20086;-69
2022/11/14 03:14:30;;;;;;;36.63;16.90;;;;;;;3.86;100.00;101177.25;5050837;28;20415;-69
2022/11/14 03:16:55;;;;;;;92.45;18.80;;;;;;;3.89;100.00;101211.66;5032880;28;20029;-69
2022/11/14 03:19:21;;;;;;;140.20;19.08;;;;;;;3.51;100.00;101199.19;5051205;28;20017;-69
2022/11/14 03:21:47;;;;;;;108.63;18.98;;;;;;;3.64;100.00;101259.78;5035616;28;20070;-69
2022/11/14 03:24:12;;;;;;;99.70;18.70;;;;;;;3.93;100.00;101268.75;5070792;28;20411;-69
2022/11/14 03:26:37;;;;;;;330.98;23.23;;;;;;;4.03;100.00;101265.59;5070395;28;20505;-68
2022/11/14 03:29:03;;;;;;;154.93;19.27;;;;;;;3.79;100.00;101224.88;5070640;28;20044;-69
2022/11/14 03:31:28;;;;;;;369.55;23.52;;;;;;;3.71;100.00;101219.69;5067856;28;20067;-70
2022/11/14 03:33:54;;;;;;;275.02;23.35;;;;;;;3.36;100.00;101162.88;5070876;28;20111;-71
2022/11/14 03:36:19;;;;;;;528.47;29.65;;;;;;;3.89;100.00;101211.66;5070936;28;20032;-70
2022/11/14 03:38:44;;;;;;;499.30;30.20;;;;;;;4.02;100.00;101198.50;5070766;28;20029;-70
2022/11/14 03:41:10;;;;;;;610.83;33.40;;;;;;;4.22;100.00;101253.38;5070713;28;20028;-69
2022/11/14 03:43:35;;;;;;;581.70;31.70;;;;;;;3.86;100.00;101204.94;5069362;28;20561;-70
2022/11/14 03:46:02;;;;;;;405.33;25.70;;;;;;;4.13;100.00;101217.16;5070765;28;20430;-70
2022/11/14 03:48:28;;;;;;;324.35;25.30;;;;;;;4.11;100.00;101198.66;5070702;28;20033;-69
2022/11/14 03:50:55;;;;;;;767.95;38.10;;;;;;;4.05;100.00;101247.19;5070296;28;20028;-69
2022/11/14 03:53:20;;;;;;;451.52;27.75;;;;;;;3.96;100.00;101261.28;5070232;28;20109;-68
2022/11/14 03:55:46;;;;;;;120.25;19.48;;;;;;;3.59;100.00;101189.28;5068779;28;20474;-68
2022/11/14 03:58:11;;;;;;;276.38;21.60;;;;;;;4.29;100.00;101236.72;5068923;28;20081;-68
2022/11/14 04:00:37;;;;;;;283.10;22.20;;;;;;;3.47;100.00;101133.75;5070163;28;20411;-68
2022/11/14 04:03:03;;;;;;;23.20;13.57;;;;;;;5.98;100.00;101211.44;5068116;28;20420;-68
2022/11/14 04:05:28;;;;;;;208.93;22.08;;;;;;;3.75;100.00;101170.31;5071256;28;20449;-76
2022/11/14 04:07:54;;;;;;;343.40;25.38;;;;;;;4.23;100.00;101256.75;5071614;28;20034;-74
2022/11/14 04:10:19;;;;;;;319.35;25.05;;;;;;;3.96;100.00;101189.16;5051676;28;20032;-74
2022/11/14 04:12:49;;;;;;;523.67;30.05;;;;;;;4.23;100.00;101251.72;5071063;28;20515;-73
2022/11/14 04:15:15;;;;;;;342.80;24.13;;;;;;;4.15;100.00;101211.31;5053191;28;20028;-73
2022/11/14 04:17:41;;;;;;;182.82;21.15;;;;;;;4.06;100.00;101243.84;5069358;28;20025;-73
2022/11/14 04:20:06;;;;;;;469.48;28.35;;;;;;;4.39;100.00;101261.25;5055183;28;20035;-73
2022/11/14 04:22:32;;;;;;;237.00;21.40;;;;;;;4.16;100.00;101255.78;5070935;28;20465;-74
2022/11/14 04:24:57;;;;;;;255.38;23.63;;;;;;;3.95;100.00;101199.19;5049472;28;20029;-76
2022/11/14 04:27:22;;;;;;;374.15;25.27;;;;;;;3.71;100.00;101204.63;5057163;28;20032;-73
2022/11/14 04:29:48;;;;;;;169.13;18.95;;;;;;;4.32;100.00;101260.28;5074484;28;20410;-73
2022/11/14 04:32:13;;;;;;;288.10;22.27;;;;;;;4.41;100.00;101264.63;5056115;28;20062;-75
2022/11/14 04:34:39;;;;;;;281.70;22.60;;;;;;;4.16;100.00;101192.06;5035880;28;20638;-76
2022/11/14 04:37:04;;;;;;;245.73;21.27;;;;;;;4.54;100.00;101265.69;5060462;28;20543;-73
2022/11/14 04:39:30;;;;;;;197.25;20.95;;;;;;;4.48;100.00;101261.38;5066599;28;20563;-70
2022/11/14 04:41:55;;;;;;;171.23;20.15;;;;;;;4.34;100.00;101238.50;5074201;28;20036;-71
2022/11/14 04:44:20;;;;;;;405.38;23.77;;;;;;;4.36;100.00;101218.38;5074465;28;20031;-72
2022/11/14 04:46:46;;;;;;;262.35;22.02;;;;;;;4.53;100.00;101216.16;5074405;28;20068;-71
2022/11/14 04:49:11;;;;;;;133.43;18.33;;;;;;;4.46;100.00;101212.69;5073192;28;20033;-71
2022/11/14 04:51:36;;;;;;;73.65;18.08;;;;;;;4.59;100.00;101209.56;5073718;28;20033;-71
2022/11/14 04:54:02;;;;;;;151.82;20.05;;;;;;;5.04;100.00;101263.16;5055929;28;20052;-74
2022/11/14 04:56:28;;;;;;;163.93;20.25;;;;;;;4.89;100.00;101220.09;5055952;28;20036;-74
2022/11/14 04:58:53;;;;;;;94.43;19.98;;;;;;;4.79;100.00;101205.69;5055658;28;20584;-71
2022/11/14 05:01:19;;;;;;;232.20;22.05;;;;;;;5.15;100.00;101268.38;5056122;28;20020;-72
2022/11/14 05:03:44;;;;;;;351.05;24.42;;;;;;;4.42;100.00;101189.97;5055566;28;20031;-70
2022/11/14 05:06:10;;;;;;;181.25;20.75;;;;;;;4.77;100.00;101214.03;5055754;28;20028;-75
2022/11/14 05:08:36;;;;;;;396.85;25.48;;;;;;;4.79;100.00;101250.16;5073025;28;20103;-72
2022/11/14 05:11:01;;;;;;;68.25;18.23;;;;;;;4.73;100.00;101205.59;5088587;28;20029;-71
2022/11/14 05:13:27;;;;;;;145.95;20.17;;;;;;;5.28;100.00;101260.16;5055589;28;20033;-70
2022/11/14 05:15:53;;;;;;;199.50;21.45;;;;;;;4.93;100.00;101213.44;5055599;28;20456;-69
2022/11/14 05:18:18;;;;;;;85.00;30.83;;;;;;;4.51;100.00;101124.66;5072979;28;20479;-64
2022/11/14 05:20:44;;;;;;;146.13;29.92;;;;;;;5.60;100.00;101265.63;5054992;28;20037;-65
2022/11/14 05:23:20;;;;;;;214.50;34.50;;;;;;;4.82;100.00;101247.69;5053856;28;20115;-66
2022/11/14 05:25:46;;;;;;;150.82;29.63;;;;;;;5.05;100.00;101264.84;5075231;28;20505;-67
2022/11/14 05:28:12;;;;;;;108.13;30.27;;;;;;;5.33;100.00;101262.75;5057159;28;20070;-67
2022/11/14 05:30:38;;;;;;;100.63;32.97;;;;;;;5.12;100.00;101254.03;5072615;28;20119;-67
2022/11/14 05:33:03;;;;;;;87.60;28.95;;;;;;;4.73;100.00;101152.69;5072376;28;20112;-67
2022/11/14 05:35:29;;;;;;;154.65;35.78;;;;;;;4.94;100.00;101226.06;5072630;28;20402;-69
2022/11/14 05:37:54;;;;;;;151.07;36.53;;;;;;;5.23;100.00;101266.78;5054130;28;20032;-68
2022/11/14 05:40:19;;;;;;;156.52;63.53;;;;;;;5.24;100.00;101249.19;5054585;28;20118;-72
2022/11/14 05:42:45;;;;;;;56.67;27.58;;;;;;;8.02;100.00;101188.28;5072100;28;20505;-67
2022/11/14 05:45:10;;;;;;;109.07;36.90;;;;;;;6.14;100.00;101253.66;5065917;28;20102;-68
2022/11/14 05:47:36;;;;;;;123.45;37.42;;;;;;;5.36;100.00;101240.94;5055673;28;20044;-70
2022/11/14 05:50:02;;;;;;;139.45;32.72;;;;;;;5.29;100.00;101214.78;5053788;28;20043;-66
2022/11/14 05:52:27;;;;;;;68.72;21.45;;;;;;;5.83;100.00;101271.78;5071449;28;20025;-67
2022/11/14 05:54:53;;;;;;;150.15;25.85;;;;;;;5.21;100.00;101259.22;5070909;28;20079;-67
2022/11/14 05:57:18;;;;;;;113.35;23.13;;;;;;;5.60;100.00;101258.91;5071638;28;20021;-69
2022/11/14 05:59:43;;;;;;;94.80;24.40;;;;;;;5.76;100.00;101288.56;5053943;28;20449;-69
2022/11/14 06:02:09;;;;;;;194.25;28.48;;;;;;;5.63;100.00;101274.06;5054150;28;20025;-69
2022/11/14 06:04:34;;;;;;;167.18;29.20;;;;;;;5.56;100.00;101277.34;5054110;28;20028;-69
2022/11/14 06:07:00;;;;;;;145.25;54.78;;;;;;;4.92;100.00;101204.16;5072680;28;20460;-70
2022/11/14 06:09:25;;;;;;;83.85;31.35;;;;;;;5.29;100.00;101237.47;5054176;28;20552;-70
2022/11/14 06:11:51;;;;;;;145.10;22.48;;;;;;;5.36;100.00;101275.38;5054365;28;20024;-69
2022/11/14 06:14:16;;;;;;;115.10;32.55;;;;;;;5.48;100.00;101280.59;5054343;28;20037;-69
2022/11/14 06:16:41;;;;;;;83.38;24.65;;;;;;;5.19;100.00;101285.19;5054158;28;20104;-69
2022/11/14 06:19:07;;;;;;;98.65;19.98;;;;;;;4.99;100.00;101237.03;5072106;28;20070;-69
2022/11/14 06:21:32;;;;;;;60.47;18.63;;;;;;;5.02;100.00;101209.38;5054134;28;20142;-70
2022/11/14 06:23:58;;;;;;;104.88;20.90;;;;;;;5.23;100.00;101276.88;5072131;28;20028;-69
2022/11/14 06:26:26;;;;;;;136.15;20.08;;;;;;;5.10;100.00;101225.47;5054172;28;20033;-69
2022/11/14 06:28:52;;;;;;;190.40;24.42;;;;;;;5.25;100.00;101275.22;5072386;28;20560;-70
2022/11/14 06:31:19;;;;;;;117.47;21.85;;;;;;;5.46;100.00;101297.38;5071797;28;20029;-69
2022/11/14 06:33:44;;;;;;;64.00;20.20;;;;;;;5.00;100.00;101221.09;5071785;28;20740;-68
2022/11/14 06:36:10;;;;;;;53.65;19.98;;;;;;;5.20;100.00;101226.44;5054011;28;20123;-70
2022/11/14 06:38:38;;;;;;;53.78;20.73;;;;;;;5.13;100.00;101228.00;5071604;28;20051;-67
2022/11/14 06:41:15;;;;;;;42.47;17.05;;;;;;;4.87;100.00;101160.44;5071685;28;20052;-71
2022/11/14 06:43:45;;;;;;;66.80;18.10;;;;;;;5.03;100.00;101222.84;5071556;28;20094;-69
2022/11/14 06:46:16;;;;;;;67.53;19.15;;;;;;;5.24;100.00;101226.50;5071383;28;20029;-69
2022/11/14 06:48:43;;;;;;;61.97;22.48;;;;;;;4.91;100.00;101157.16;5070810;28;20032;-70
2022/11/14 06:51:09;;;;;;;65.28;22.15;;;;;;;5.16;100.00;101215.47;5071488;28;20025;-67
2022/11/14 06:53:35;;;;;;;27.30;16.13;;;;;;;5.18;100.00;101206.25;5053318;28;20052;-68
2022/11/14 06:56:12;;;;;;;26.15;15.75;;;;;;;5.31;100.00;101294.66;5053682;28;20028;-70
2022/11/14 06:58:40;;;;;;;21.25;14.18;;;;;;;5.59;100.00;101249.63;5053777;28;20082;-67
2022/11/14 07:01:22;;;;;;;26.05;18.55;;;;;;;5.38;100.00;101279.63;5071195;28;20502;-67
2022/11/14 07:03:48;;;;;;;19.67;13.73;;;;;;;5.82;100.00;101272.63;5071247;28;20032;-67
2022/11/14 07:06:24;;;;;;;29.17;19.60;;;;;;;5.82;100.00;101282.72;5071065;28;20492;-67
2022/11/14 07:08:51;;;;;;;23.33;16.83;;;;;;;5.78;100.00;101225.50;5053373;28;20020;-67
2022/11/14 07:11:24;;;;;;;22.65;16.45;;;;;;;5.89;100.00;101217.25;5071027;28;20044;-67
2022/11/14 07:13:50;;;;;;;24.52;15.75;;;;;;;6.56;100.00;101281.03;5070673;28;20032;-68
2022/11/14 07:16:16;;;;;;;33.20;20.85;;;;;;;5.92;100.00;101186.97;5070874;28;20081;-67
2022/11/14 07:18:41;;;;;;;36.97;23.42;;;;;;;6.05;100.00;101272.09;5071112;28;20033;-67
2022/11/14 07:21:07;;;;;;;44.05;24.55;;;;;;;6.34;100.00;101256.41;5071385;28;20036;-68
2022/11/14 07:23:33;;;;;;;45.38;27.00;;;;;;;6.01;100.00;101283.00;5070772;28;20036;-68
2022/11/14 07:26:07;;;;;;;50.92;29.95;;;;;;;6.44;100.00;101223.66;5053014;28;20063;-67
2022/11/14 07:28:34;;;;;;;68.95;43.47;;;;;;;6.49;100.00;101209.41;5070756;28;20028;-68
2022/11/14 07:31:04;;;;;;;95.47;57.22;;;;;;;6.36;100.00;101268.19;5052576;28;20483;-67
2022/11/14 07:33:30;;;;;;;135.10;91.32;;;;;;;6.77;100.00;101261.84;5053119;28;20035;-67
2022/11/14 07:35:56;;;;;;;108.30;79.03;;;;;;;6.32;100.00;101198.31;5070807;28;20029;-69
2022/11/14 07:38:21;;;;;;;57.47;41.65;;;;;;;6.87;100.00;101261.06;5070692;28;20024;-68
2022/11/14 07:40:57;;;;;;;53.83;36.15;;;;;;;6.86;100.00;101216.44;5052571;28;20425;-68
2022/11/14 07:43:23;;;;;;;43.53;33.85;;;;;;;7.34;100.00;101260.56;5052686;28;20413;-67
2022/11/14 07:45:49;;;;;;;25.50;21.08;;;;;;;7.00;100.00;101235.06;5052573;28;20020;-69
2022/11/14 07:48:15;;;;;;;23.02;17.85;;;;;;;6.88;100.00;101176.00;5052497;28;20047;-67
2022/11/14 07:50:41;;;;;;;20.15;17.10;;;;;;;6.64;100.00;101198.56;5052362;28;20033;-68
2022/11/14 07:53:06;;;;;;;19.75;17.02;;;;;;;7.00;100.00;101231.69;5070312;28;20029;-69
2022/11/14 07:55:34;;;;;;;21.98;17.75;;;;;;;7.55;100.00;101261.53;5051696;28;20059;-67
2022/11/14 07:58:00;;;;;;;15.70;13.98;;;;;;;7.52;100.00;101260.66;5070449;28;20483;-67
2022/11/14 08:00:25;;;;;;;17.08;15.23;;;;;;;7.69;100.00;101261.56;5069591;28;20036;-69
2022/11/14 08:02:51;;;;;;;17.45;14.20;;;;;;;7.61;100.00;101264.09;5052674;28;20566;-69
2022/11/14 08:05:17;;;;;;;23.20;17.80;;;;;;;7.41;100.00;101179.66;5052155;28;20035;-68
2022/11/14 08:07:42;;;;;;;31.38;22.33;;;;;;;7.38;100.00;101176.28;5052217;28;20116;-69
2022/11/14 08:10:10;;;;;;;36.65;25.33;;;;;;;7.77;100.00;101196.66;5070031;28;20056;-69
2022/11/14 08:12:38;;;;;;;49.03;30.33;;;;;;;8.16;100.00;101251.63;5051950;28;20024;-68
2022/11/14 08:15:05;;;;;;;63.03;37.25;;;;;;;7.96;100.00;101255.78;5052097;28;20021;-69
2022/11/14 08:17:30;;;;;;;72.72;44.70;;;;;;;8.16;100.00;101254.16;5069902;28;20119;-69
2022/11/14 08:19:56;;;;;;;69.38;41.75;;;;;;;8.13;100.00;101260.06;5070040;28;20123;-70
2022/11/14 08:22:21;;;;;;;58.25;36.05;;;;;;;8.26;100.00;101244.06;5070182;28;20392;-70
2022/11/14 08:24:47;;;;;;;62.53;38.47;;;;;;;8.33;100.00;101212.84;5070156;28;20025;-70
2022/11/14 08:27:12;;;;;;;57.67;37.97;;;;;;;8.70;100.00;101252.56;5070315;28;20032;-69
2022/11/14 08:29:37;;;;;;;45.85;31.08;;;;;;;8.82;100.00;101271.16;5051894;28;20174;-69
2022/11/14 08:32:03;;;;;;;43.67;30.65;;;;;;;8.48;100.00;101263.53;5070527;28;20033;-68
2022/11/14 08:34:29;;;;;;;43.15;30.25;;;;;;;8.50;100.00;101190.88;5052342;28;20407;-68
2022/11/14 08:36:55;;;;;;;40.78;31.02;;;;;;;8.88;100.00;101220.44;5069906;28;20025;-68
2022/11/14 08:39:21;;;;;;;53.83;38.42;;;;;;;8.91;100.00;101210.31;5051710;28;20017;-68
2022/11/14 08:41:46;;;;;;;76.78;51.50;;;;;;;9.02;100.00;101234.78;5070071;28;20025;-68
2022/11/14 08:44:12;;;;;;;57.92;41.22;;;;;;;8.89;100.00;101267.78;5070432;28;20025;-68
2022/11/14 08:46:37;;;;;;;71.93;50.20;;;;;;;8.42;100.00;101267.72;5069859;28;20024;-69
2022/11/14 08:49:03;;;;;;;74.13;50.88;;;;;;;8.54;100.00;101253.41;5070182;28;20040;-68
2022/11/14 08:51:28;;;;;;;66.72;48.22;;;;;;;8.49;100.00;101224.69;5069827;28;20037;-68
2022/11/14 08:53:53;;;;;;;67.18;46.05;;;;;;;8.95;100.00;101260.16;5069545;28;20048;-70
2022/11/14 08:56:19;;;;;;;53.83;40.53;;;;;;;9.45;100.00;101255.84;5052044;28;20124;-70
2022/11/14 08:58:44;;;;;;;48.45;36.72;;;;;;;8.66;100.00;101190.03;5069848;28;20082;-70
2022/11/14 09:01:10;;;;;;;44.30;36.30;;;;;;;9.11;100.00;101193.34;5070050;28;20147;-70
2022/11/14 09:03:35;;;;;;;47.03;33.70;;;;;;;9.21;100.00;101246.59;5052104;28;20453;-69
2022/11/14 09:06:02;;;;;;;41.47;32.78;;;;;;;9.42;100.00;101251.63;5051834;28;20035;-68
2022/11/14 09:08:28;;;;;;;50.55;36.63;;;;;;;9.68;100.00;101263.38;5051426;28;20438;-70
2022/11/14 09:10:54;;;;;;;46.53;36.58;;;;;;;9.74;100.00;101203.28;5051566;28;20094;-70
2022/11/14 09:13:21;;;;;;;46.03;34.05;;;;;;;9.98;100.00;101238.69;5073212;28;20032;-70
2022/11/14 09:15:46;;;;;;;45.42;36.03;;;;;;;10.00;100.00;101236.97;5055621;28;20025;-68
2022/11/14 09:18:12;;;;;;;42.47;33.35;;;;;;;10.16;100.00;101195.41;5073671;28;20060;-68
2022/11/14 09:20:37;;;;;;;53.60;44.35;;;;;;;10.25;100.00;101230.94;5055541;28;20052;-68
2022/11/14 09:23:03;;;;;;;47.53;38.83;;;;;;;9.89;100.00;101175.25;5074079;28;20032;-71
2022/11/14 09:25:29;;;;;;;45.03;35.08;;;;;;;10.27;100.00;101223.31;5054968;28;20036;-67
2022/11/14 09:27:55;;;;;;;40.80;33.00;;;;;;;10.66;100.00;101230.63;5072768;28;20036;-67
2022/11/14 09:30:21;;;;;;;37.22;30.70;;;;;;;10.98;100.00;101223.56;5054995;28;20432;-67
2022/11/14 09:32:47;;;;;;;38.65;31.88;;;;;;;9.83;100.00;101146.50;5073026;28;20067;-68
2022/11/14 09:35:13;;;;;;;37.83;30.70;;;;;;;9.98;100.00;101170.09;5073404;28;20517;-67
2022/11/14 09:37:39;;;;;;;36.45;30.67;;;;;;;10.00;100.00;101165.84;5072888;28;20036;-68
2022/11/14 09:40:05;;;;;;;35.83;29.80;;;;;;;10.02;100.00;101158.25;5072877;28;20437;-70
2022/11/14 09:42:57;;;;;;;32.38;26.88;;;;;;;10.71;100.00;101215.34;5055070;28;20024;-68
2022/11/14 09:45:24;;;;;;;30.17;24.52;;;;;;;10.48;100.00;101175.69;5054975;28;20414;-69
2022/11/14 09:47:54;;;;;;;31.85;24.88;;;;;;;10.80;100.00;101161.84;5054519;28;20441;-70
2022/11/14 09:50:31;;;;;;;34.45;23.63;;;;;;;11.38;100.00;101156.94;5054861;28;20086;-68
2022/11/14 09:53:09;;;;;;;28.77;23.10;;;;;;;11.19;100.00;101176.72;5073133;28;20035;-68
2022/11/14 09:55:35;;;;;;;27.95;21.08;;;;;;;10.82;100.00;101127.91;5072812;28;20121;-68
2022/11/14 09:58:01;;;;;;;25.13;19.75;;;;;;;11.73;100.00;101214.25;5072708;28;20472;-67
2022/11/14 10:00:50;;;;;;;25.60;21.23;;;;;;;11.50;100.00;101218.78;5072818;28;20036;-68
2022/11/14 10:03:19;;;;;;;30.27;22.80;;;;;;;11.52;100.00;101153.38;5072319;28;20028;-68
2022/11/14 10:06:01;;;;;;;33.45;24.95;;;;;;;12.19;100.00;101209.38;5072569;28;20032;-69
2022/11/14 10:08:45;;;;;;;31.80;26.67;;;;;;;12.27;100.00;101211.81;5079785;28;20013;-69
2022/11/14 10:11:33;;;;;;;36.42;31.38;;;;;;;11.88;100.00;101186.06;4721267;28;10000746;-68
2022/11/14 10:14:22;;;;;;;38.80;32.10;;;;;;;11.80;100.00;101220.13;5088910;28;20028;-69
2022/11/14 10:17:13;;;;;;;39.13;32.58;;;;;;;11.76;100.00;101201.50;5065889;28;20032;-69
2022/11/14 10:19:53;;;;;;;35.50;30.60;;;;;;;12.02;100.00;101179.03;5070131;28;20036;-69
2022/11/14 10:22:45;;;;;;;38.20;31.55;;;;;;;12.46;100.00;101198.75;5070509;28;20106;-70
2022/11/14 10:25:24;;;;;;;35.85;27.85;;;;;;;11.86;100.00;101062.91;5069163;28;20040;-69
2022/11/14 10:28:06;;;;;;;32.00;24.83;;;;;;;12.26;100.00;101116.63;5070365;28;20079;-69
2022/11/14 10:30:43;;;;;;;31.00;24.92;;;;;;;12.81;100.00;101195.63;5069407;28;20033;-69
2022/11/14 10:33:26;;;;;;;35.78;27.75;;;;;;;12.62;100.00;101192.53;5065600;28;20111;-68
2022/11/14 10:36:08;;;;;;;28.52;23.52;;;;;;;11.95;100.00;101107.78;5049251;28;20041;-70
2022/11/14 10:38:33;;;;;;;32.97;23.80;;;;;;;12.72;100.00;101186.41;5065708;28;20484;-68
2022/11/14 10:41:05;;;;;;;34.00;23.98;;;;;;;12.89;100.00;101160.59;5051518;28;20096;-70
2022/11/14 10:43:43;;;;;;;28.23;21.10;;;;;;;12.37;100.00;101109.66;5051683;28;20063;-70
2022/11/14 10:46:12;;;;;;;26.02;19.17;;;;;;;13.31;100.00;101181.97;5069389;28;20020;-72
2022/11/14 10:48:45;;;;;;;28.25;22.67;;;;;;;12.75;100.00;101103.88;5053546;28;20185;-70
2022/11/14 10:51:34;;;;;;;28.63;21.00;;;;;;;13.52;100.00;101158.53;5071749;28;20395;-71
2022/11/14 10:54:08;;;;;;;24.23;20.15;;;;;;;13.13;100.00;101164.44;5084403;28;20079;-70
2022/11/14 10:56:44;;;;;;;24.73;19.88;;;;;;;12.85;100.00;101097.72;5073428;28;20071;-70
2022/11/14 10:59:10;;;;;;;25.27;20.42;;;;;;;12.65;100.00;101095.53;5073424;28;20039;-70
2022/11/14 11:01:38;;;;;;;31.02;23.20;;;;;;;12.34;100.00;101035.72;5072965;28;20032;-70
2022/11/14 11:04:18;;;;;;;24.10;20.75;;;;;;;13.50;100.00;101145.78;5072457;28;20077;-72
2022/11/14 11:06:43;;;;;;;25.88;20.23;;;;;;;13.74;100.00;101137.59;5072935;28;20059;-70
2022/11/14 11:12:00;;;;;;;25.00;20.42;;;;;;;14.06;100.00;101170.09;5091099;28;20413;-69